Time;durP1;ratioP1;P1;durP2;ratioP2;P2;SDS_P1;SDS_P2;PMS_P1;PMS_P2;Temp;Humidity;BMP_temperature;BMP_pressure;BME280_temperature;BME280_humidity;BME280_pressure;Samples;Min_cycle;Max_cycle;Signal;HPM_P1;HPM_P2
2021/07/17 09:56:36;;;;;;;18.10;16.05;;;23.30;99.90;;;;;;5109541;27;20351;-65
2021/07/17 09:59:05;;;;;;;15.85;14.07;;;23.00;99.90;;;;;;5109418;28;20650;-65
2021/07/17 10:01:33;;;;;;;18.05;13.45;;;23.30;99.90;;;;;;5096792;28;20283;-66
2021/07/17 10:04:13;;;;;;;20.40;13.23;;;23.90;99.90;;;;;;5088554;28;20199;-66
2021/07/17 10:06:46;;;;;;;15.77;13.50;;;24.10;99.90;;;;;;5089056;28;20276;-66
2021/07/17 10:09:12;;;;;;;15.82;12.05;;;24.70;99.90;;;;;;5088467;28;20239;-66
2021/07/17 10:11:38;;;;;;;16.92;12.95;;;25.30;99.90;;;;;;5088842;28;20201;-66
2021/07/17 10:14:18;;;;;;;14.48;12.45;;;25.40;99.90;;;;;;5088396;28;20638;-66
2021/07/17 10:16:45;;;;;;;13.90;11.73;;;25.60;99.90;;;;;;5088284;28;20695;-66
2021/07/17 10:19:14;;;;;;;12.10;11.10;;;25.80;99.90;;;;;;5088411;28;20249;-66
2021/07/17 10:21:40;;;;;;;11.15;10.02;;;26.20;99.90;;;;;;5088743;28;20213;-66
2021/07/17 10:24:06;;;;;;;10.50;9.50;;;27.10;99.90;;;;;;5088218;28;20185;-66
2021/07/17 10:26:32;;;;;;;12.60;9.35;;;27.90;99.90;;;;;;5088420;28;20218;-66
2021/07/17 10:29:05;;;;;;;9.73;8.85;;;28.50;99.90;;;;;;5088262;28;20188;-66
2021/07/17 10:31:31;;;;;;;9.20;8.40;;;28.70;99.90;;;;;;5088272;28;20654;-66
2021/07/17 10:33:57;;;;;;;11.18;7.68;;;29.30;99.90;;;;;;5088053;28;20205;-66
2021/07/17 10:36:24;;;;;;;9.13;7.97;;;30.20;99.90;;;;;;5088275;28;20202;-66
2021/07/17 10:38:54;;;;;;;8.70;7.70;;;30.20;99.90;;;;;;5088306;28;20657;-66
2021/07/17 10:41:22;;;;;;;10.48;8.05;;;30.00;99.90;;;;;;5088057;28;20197;-66
2021/07/17 10:43:52;;;;;;;8.65;7.75;;;29.70;99.90;;;;;;5087698;28;20654;-66
2021/07/17 10:46:30;;;;;;;10.20;8.77;;;29.60;99.90;;;;;;5088016;28;20184;-66
2021/07/17 10:48:57;;;;;;;7.80;7.00;;;29.60;99.90;;;;;;5088030;28;20572;-66
2021/07/17 10:51:22;;;;;;;9.60;8.32;;;29.70;99.90;;;;;;5087904;28;20194;-66
2021/07/17 10:53:50;;;;;;;8.88;7.82;;;29.60;99.90;;;;;;5087723;28;20675;-66
2021/07/17 10:56:28;;;;;;;9.20;7.40;;;29.50;99.90;;;;;;5087612;28;20217;-65
2021/07/17 10:59:15;;;;;;;10.18;8.23;;;28.90;99.90;;;;;;5087788;28;20638;-66
2021/07/17 11:02:02;;;;;;;12.05;7.78;;;28.70;99.90;;;;;;5088012;28;20194;-66
2021/07/17 11:04:33;;;;;;;8.68;7.65;;;28.80;99.90;;;;;;5087026;28;20205;-66
2021/07/17 11:07:17;;;;;;;9.60;8.63;;;28.80;99.90;;;;;;5079754;28;20538;-66
2021/07/17 11:10:07;;;;;;;10.18;8.50;;;29.30;99.90;;;;;;5054414;28;20179;-66
2021/07/17 11:12:43;;;;;;;10.57;9.38;;;29.90;99.90;;;;;;5057665;28;20804;-66
2021/07/17 11:15:09;;;;;;;10.50;8.88;;;29.90;99.90;;;;;;5073848;28;20220;-66
2021/07/17 11:17:44;;;;;;;10.70;9.32;;;29.70;99.90;;;;;;5073761;28;20647;-66
2021/07/17 11:20:20;;;;;;;14.68;7.95;;;29.80;99.90;;;;;;5073979;28;20174;-66
2021/07/17 11:22:58;;;;;;;8.68;7.40;;;29.70;99.90;;;;;;5073860;28;20170;-66
2021/07/17 11:25:23;;;;;;;8.48;7.35;;;29.70;99.90;;;;;;5073658;28;20689;-66
2021/07/17 11:27:49;;;;;;;9.05;7.70;;;30.00;99.90;;;;;;5073130;28;20182;-66
2021/07/17 11:30:19;;;;;;;9.50;8.63;;;30.50;99.90;;;;;;5073676;28;20174;-66
2021/07/17 11:33:14;;;;;;;9.20;7.43;;;30.60;99.90;;;;;;5073793;28;20178;-66
2021/07/17 11:35:42;;;;;;;9.98;7.85;;;30.70;99.90;;;;;;5066243;28;20576;-66
2021/07/17 11:38:11;;;;;;;10.18;7.93;;;30.80;99.90;;;;;;5074122;28;20166;-65
2021/07/17 11:40:38;;;;;;;7.00;6.40;;;30.40;99.90;;;;;;5073968;28;20194;-66
2021/07/17 11:43:08;;;;;;;9.05;6.70;;;30.20;99.90;;;;;;5073765;28;20239;-66
2021/07/17 11:45:35;;;;;;;9.27;8.18;;;30.20;99.90;;;;;;5073678;28;20183;-66
2021/07/17 11:48:11;;;;;;;9.60;6.55;;;30.60;99.90;;;;;;5072473;28;20175;-66
2021/07/17 11:50:38;;;;;;;9.20;6.93;;;31.30;99.90;;;;;;5073467;28;20196;-66
2021/07/17 11:53:13;;;;;;;8.55;6.72;;;31.00;99.90;;;;;;5073410;28;20572;-66
2021/07/17 11:55:39;;;;;;;7.30;6.63;;;30.90;99.90;;;;;;5072868;28;20248;-66
2021/07/17 11:58:15;;;;;;;8.23;6.60;;;30.80;99.90;;;;;;5073138;28;20206;-66
2021/07/17 12:00:41;;;;;;;10.13;6.60;;;30.70;99.90;;;;;;5073285;28;20178;-66
2021/07/17 12:03:06;;;;;;;7.45;5.97;;;30.80;99.90;;;;;;5073102;28;20269;-66
2021/07/17 12:05:32;;;;;;;7.22;5.78;;;31.30;99.90;;;;;;5072760;28;20174;-66
2021/07/17 12:07:58;;;;;;;6.55;5.82;;;31.50;99.90;;;;;;5073012;28;20175;-66
2021/07/17 12:10:25;;;;;;;6.22;5.53;;;31.90;99.90;;;;;;5071603;28;20214;-66
2021/07/17 12:12:52;;;;;;;7.28;5.35;;;32.00;99.90;;;;;;5073134;28;20186;-66
2021/07/17 12:15:35;;;;;;;7.57;6.78;;;31.90;99.90;;;;;;5072299;28;20274;-66
2021/07/17 12:18:04;;;;;;;8.80;5.93;;;31.90;99.90;;;;;;5071856;28;20201;-66
2021/07/17 12:20:38;;;;;;;6.85;6.20;;;32.00;99.90;;;;;;5052725;28;20187;-66
2021/07/17 12:23:07;;;;;;;8.05;6.38;;;31.60;99.90;;;;;;5053289;28;20624;-66
2021/07/17 12:25:43;;;;;;;8.30;6.28;;;31.70;99.90;;;;;;5052681;28;20270;-66
2021/07/17 12:28:18;;;;;;;6.30;5.80;;;31.70;99.90;;;;;;5058393;28;20202;-66
2021/07/17 12:30:56;;;;;;;6.75;6.13;;;31.40;99.90;;;;;;5072596;28;20198;-66
2021/07/17 12:33:33;;;;;;;7.22;6.22;;;31.30;99.90;;;;;;5072403;28;20719;-66
2021/07/17 12:36:13;;;;;;;8.35;5.38;;;31.40;99.90;;;;;;5072630;28;20251;-66
2021/07/17 12:38:44;;;;;;;8.23;6.07;;;31.40;99.90;;;;;;5072705;28;20631;-66
2021/07/17 12:41:13;;;;;;;6.10;5.50;;;31.60;99.90;;;;;;5072486;28;20228;-66
2021/07/17 12:43:45;;;;;;;7.13;6.30;;;31.50;99.90;;;;;;5072241;28;20271;-66
2021/07/17 12:46:12;;;;;;;7.55;5.53;;;31.10;99.90;;;;;;5072332;28;20639;-66
2021/07/17 12:48:50;;;;;;;6.20;5.60;;;31.60;99.90;;;;;;5072162;28;20273;-66
2021/07/17 12:51:39;;;;;;;6.25;5.45;;;31.60;99.90;;;;;;5072245;28;20194;-66
2021/07/17 12:54:08;;;;;;;5.78;5.22;;;31.40;99.90;;;;;;5072016;28;20178;-66
2021/07/17 12:56:36;;;;;;;8.32;5.63;;;31.50;99.90;;;;;;5072198;28;20194;-66
2021/07/17 12:59:07;;;;;;;6.15;5.22;;;31.60;99.90;;;;;;5072188;28;20639;-66
2021/07/17 13:01:33;;;;;;;5.97;5.38;;;31.70;99.90;;;;;;5071878;28;20280;-66
2021/07/17 13:03:59;;;;;;;6.57;5.70;;;31.90;99.90;;;;;;5072109;28;20169;-66
2021/07/17 13:06:25;;;;;;;5.75;5.22;;;32.00;99.90;;;;;;5071871;28;20571;-66
2021/07/17 13:08:59;;;;;;;5.47;4.97;;;31.80;99.90;;;;;;5072297;28;20186;-66
2021/07/17 13:11:25;;;;;;;6.50;4.75;;;31.80;99.90;;;;;;5071735;28;20221;-66
2021/07/17 13:13:56;;;;;;;6.15;5.20;;;31.60;99.90;;;;;;5071932;28;20264;-66
2021/07/17 13:16:29;;;;;;;8.50;5.38;;;31.60;99.90;;;;;;5071724;28;20280;-66
2021/07/17 13:18:55;;;;;;;8.23;6.28;;;32.00;99.90;;;;;;5070900;28;20200;-66
2021/07/17 13:21:33;;;;;;;5.30;4.80;;;32.00;99.90;;;;;;5071618;28;20259;-66
2021/07/17 13:24:01;;;;;;;5.55;5.05;;;31.80;99.90;;;;;;5071918;28;20667;-66
2021/07/17 13:26:30;;;;;;;5.88;5.45;;;31.70;99.90;;;;;;5072019;28;20623;-66
2021/07/17 13:28:57;;;;;;;6.20;5.25;;;32.00;99.90;;;;;;5071855;28;20197;-66
2021/07/17 13:31:29;;;;;;;5.55;5.07;;;32.10;99.90;;;;;;5071475;28;20202;-67
2021/07/17 13:34:14;;;;;;;5.97;5.18;;;32.60;99.90;;;;;;5071839;28;20630;-66
2021/07/17 13:36:52;;;;;;;9.27;4.82;;;32.50;99.90;;;;;;5071820;28;20635;-66
2021/07/17 13:39:18;;;;;;;5.32;4.93;;;32.30;99.90;;;;;;5071848;28;20178;-66
2021/07/17 13:41:43;;;;;;;8.52;5.32;;;32.40;99.90;;;;;;5071438;28;20197;-66
2021/07/17 13:44:14;;;;;;;5.38;4.88;;;32.30;99.90;;;;;;5071533;28;20260;-66
2021/07/17 13:46:41;;;;;;;6.03;5.47;;;31.90;99.90;;;;;;5071744;28;20580;-66
2021/07/17 13:49:13;;;;;;;5.85;4.97;;;31.70;99.90;;;;;;5071803;28;20204;-66
2021/07/17 13:51:38;;;;;;;5.93;5.32;;;32.10;99.90;;;;;;5071393;28;20533;-66
2021/07/17 13:54:05;;;;;;;5.93;5.22;;;32.20;99.90;;;;;;5070829;28;20223;-66
2021/07/17 13:56:32;;;;;;;7.93;5.20;;;32.10;99.90;;;;;;5070858;28;20217;-66
2021/07/17 13:59:01;;;;;;;5.40;4.90;;;32.00;99.90;;;;;;5071290;28;20547;-66
2021/07/17 14:01:30;;;;;;;8.90;5.03;;;31.80;99.90;;;;;;5071183;28;20222;-66
2021/07/17 14:03:56;;;;;;;5.43;5.03;;;32.20;99.90;;;;;;5070267;28;20783;-66
2021/07/17 14:06:24;;;;;;;6.70;5.15;;;32.50;99.90;;;;;;5071083;28;20178;-66
2021/07/17 14:08:50;;;;;;;5.50;4.97;;;32.80;99.90;;;;;;5071459;28;20265;-66
2021/07/17 14:11:17;;;;;;;6.00;5.15;;;32.60;99.90;;;;;;5070933;28;20327;-66
2021/07/17 14:13:43;;;;;;;4.90;4.60;;;32.60;99.90;;;;;;5071073;28;20174;-66
2021/07/17 14:16:11;;;;;;;5.72;5.15;;;32.50;99.90;;;;;;5070967;28;20198;-66
2021/07/17 14:18:38;;;;;;;5.32;4.82;;;32.50;99.90;;;;;;5071170;28;20189;-65
2021/07/17 14:21:04;;;;;;;5.57;5.07;;;32.50;99.90;;;;;;5070958;28;20884;-66
2021/07/17 14:23:30;;;;;;;5.00;4.40;;;32.30;99.90;;;;;;5071191;28;20256;-66
2021/07/17 14:25:56;;;;;;;7.22;5.18;;;32.30;99.90;;;;;;5070850;28;20184;-65
2021/07/17 14:28:23;;;;;;;5.30;4.80;;;32.00;99.90;;;;;;5071097;28;20170;-66
2021/07/17 14:30:48;;;;;;;5.05;4.55;;;32.20;99.90;;;;;;5070751;28;20237;-66
2021/07/17 14:33:15;;;;;;;5.43;4.93;;;32.30;99.90;;;;;;5070862;28;20470;-66
2021/07/17 14:35:41;;;;;;;4.82;4.53;;;32.40;99.90;;;;;;5069200;28;20248;-66
2021/07/17 14:38:08;;;;;;;5.90;4.85;;;32.50;99.90;;;;;;5070510;28;20170;-66
2021/07/17 14:40:35;;;;;;;5.15;4.70;;;32.30;99.90;;;;;;5070499;28;20202;-66
2021/07/17 14:43:01;;;;;;;6.93;6.43;;;32.20;99.90;;;;;;5089613;22;20265;-66
2021/07/17 14:45:26;;;;;;;4.57;4.28;;;32.00;99.90;;;;;;5021031;28;20184;-66
2021/07/17 14:47:52;;;;;;;5.03;4.60;;;32.10;99.90;;;;;;5015009;28;20629;-65
2021/07/17 14:50:19;;;;;;;5.70;4.80;;;32.10;99.90;;;;;;5018090;28;20208;-66
2021/07/17 14:52:44;;;;;;;5.03;4.50;;;32.20;99.90;;;;;;5014653;28;20183;-66
2021/07/17 14:55:11;;;;;;;4.90;4.50;;;32.20;99.90;;;;;;5023395;28;20289;-67
2021/07/17 14:57:37;;;;;;;4.50;4.20;;;32.50;99.90;;;;;;5034586;28;20254;-66
2021/07/17 15:00:05;;;;;;;4.78;4.35;;;32.80;99.90;;;;;;5034478;28;20175;-66
2021/07/17 15:02:31;;;;;;;5.32;4.82;;;32.70;99.90;;;;;;5034415;28;20580;-66
2021/07/17 15:04:56;;;;;;;5.57;4.53;;;32.50;99.90;;;;;;5033653;28;20207;-66
2021/07/17 15:07:22;;;;;;;6.15;5.68;;;32.60;99.90;;;;;;5034332;28;20232;-67
2021/07/17 15:09:48;;;;;;;6.60;5.72;;;32.50;99.90;;;;;;5034207;28;20187;-67
2021/07/17 15:12:15;;;;;;;5.90;4.95;;;32.00;99.90;;;;;;5034362;28;20167;-66
2021/07/17 15:14:40;;;;;;;5.05;4.55;;;31.60;99.90;;;;;;5033692;28;20203;-66
2021/07/17 15:17:06;;;;;;;5.25;4.75;;;31.60;99.90;;;;;;5034293;28;20168;-66
2021/07/17 15:19:31;;;;;;;4.68;4.38;;;31.50;99.90;;;;;;5034035;28;20183;-66
2021/07/17 15:21:57;;;;;;;4.88;4.50;;;31.60;99.90;;;;;;5034101;28;20253;-66
2021/07/17 15:24:23;;;;;;;4.75;4.32;;;31.70;99.90;;;;;;5033572;28;20206;-66
2021/07/17 15:26:48;;;;;;;5.18;4.78;;;31.70;99.90;;;;;;5034269;28;20643;-66
2021/07/17 15:29:14;;;;;;;5.13;4.72;;;31.50;99.90;;;;;;5033671;28;20187;-66
2021/07/17 15:31:45;;;;;;;5.68;4.70;;;31.70;99.90;;;;;;5033926;28;20596;-66
2021/07/17 15:34:13;;;;;;;5.70;4.85;;;31.60;99.90;;;;;;5033256;28;20266;-65
2021/07/17 15:36:40;;;;;;;4.78;4.45;;;31.60;99.90;;;;;;5033829;28;20226;-66
2021/07/17 15:39:10;;;;;;;4.80;4.43;;;31.50;99.90;;;;;;5033721;28;20168;-66
2021/07/17 15:41:36;;;;;;;4.82;4.63;;;31.80;99.90;;;;;;5033797;28;20171;-65
2021/07/17 15:44:05;;;;;;;4.68;4.28;;;32.00;99.90;;;;;;5033407;28;20207;-66
2021/07/17 15:46:32;;;;;;;5.28;4.85;;;31.90;99.90;;;;;;5033581;28;20703;-66
2021/07/17 15:48:57;;;;;;;4.35;4.05;;;31.90;99.90;;;;;;5033683;28;20179;-65
2021/07/17 15:51:23;;;;;;;5.35;4.93;;;32.10;99.90;;;;;;5033313;28;20562;-66
2021/07/17 15:53:49;;;;;;;5.10;4.78;;;32.20;99.90;;;;;;5033083;28;20270;-66
2021/07/17 15:56:15;;;;;;;4.63;4.30;;;31.90;99.90;;;;;;5033108;28;20233;-66
2021/07/17 15:58:40;;;;;;;4.22;3.90;;;31.80;99.90;;;;;;5033520;28;20664;-66
2021/07/17 16:01:06;;;;;;;5.38;5.00;;;32.00;99.90;;;;;;5033230;28;20660;-66
2021/07/17 16:03:32;;;;;;;5.80;5.38;;;32.00;99.90;;;;;;5033184;28;20325;-66
2021/07/17 16:05:57;;;;;;;4.82;4.45;;;32.00;99.90;;;;;;5032770;28;20606;-66
2021/07/17 16:08:23;;;;;;;5.05;4.63;;;31.70;99.90;;;;;;5033150;28;20175;-66
2021/07/17 16:10:49;;;;;;;4.63;4.22;;;31.90;99.90;;;;;;5033029;28;20707;-66
2021/07/17 16:13:14;;;;;;;6.63;6.22;;;32.20;99.90;;;;;;5033063;28;20187;-66
2021/07/17 16:15:40;;;;;;;4.43;4.10;;;32.10;99.90;;;;;;5031120;28;20745;-66
2021/07/17 16:18:06;;;;;;;4.50;4.20;;;32.10;99.90;;;;;;5033022;28;20167;-66
2021/07/17 16:20:32;;;;;;;6.82;6.18;;;31.80;99.90;;;;;;5032631;28;20214;-66
2021/07/17 16:22:57;;;;;;;5.80;5.35;;;31.90;99.90;;;;;;5032958;28;20199;-66
2021/07/17 16:25:25;;;;;;;5.40;5.00;;;31.80;99.90;;;;;;5032439;28;20203;-65
2021/07/17 16:27:50;;;;;;;4.65;4.35;;;32.00;99.90;;;;;;5033275;28;20680;-66
2021/07/17 16:30:16;;;;;;;7.30;4.90;;;32.00;99.90;;;;;;5032455;28;20190;-66
2021/07/17 16:32:44;;;;;;;4.88;4.53;;;31.90;99.90;;;;;;5032719;28;20175;-66
2021/07/17 16:35:10;;;;;;;4.82;4.43;;;31.40;99.90;;;;;;5032326;28;20200;-66
2021/07/17 16:37:37;;;;;;;5.45;4.97;;;31.50;99.90;;;;;;5032845;28;20850;-67
2021/07/17 16:40:05;;;;;;;5.53;4.97;;;31.60;99.90;;;;;;5033975;28;20179;-66
2021/07/17 16:42:31;;;;;;;6.50;5.90;;;31.60;99.90;;;;;;5012616;28;20256;-67
2021/07/17 16:44:57;;;;;;;4.60;4.30;;;31.40;99.90;;;;;;5012653;28;20277;-66
2021/07/17 16:47:22;;;;;;;4.60;4.30;;;31.30;99.90;;;;;;5031380;28;20233;-67
2021/07/17 16:49:49;;;;;;;5.30;4.90;;;31.00;99.90;;;;;;5032551;28;20551;-67
2021/07/17 16:52:14;;;;;;;4.93;4.53;;;30.80;99.90;;;;;;5032163;28;20710;-65
2021/07/17 16:54:40;;;;;;;5.45;4.95;;;30.60;99.90;;;;;;5031978;28;20207;-67
2021/07/17 16:57:05;;;;;;;5.97;5.47;;;30.70;99.90;;;;;;5032181;28;20237;-67
2021/07/17 16:59:31;;;;;;;4.85;4.35;;;31.00;99.90;;;;;;5032293;28;20178;-67
2021/07/17 17:01:58;;;;;;;5.57;5.07;;;31.30;99.90;;;;;;5032015;28;20184;-66
2021/07/17 17:04:24;;;;;;;4.95;4.45;;;31.30;99.90;;;;;;5031023;28;20198;-66
2021/07/17 17:06:50;;;;;;;4.93;4.53;;;31.10;99.90;;;;;;5032170;28;20164;-66
2021/07/17 17:09:16;;;;;;;4.65;4.25;;;30.90;99.90;;;;;;5031914;28;20171;-66
2021/07/17 17:11:42;;;;;;;4.55;4.22;;;30.80;99.90;;;;;;5032164;28;20174;-66
2021/07/17 17:14:07;;;;;;;4.57;4.25;;;30.60;99.90;;;;;;5031511;28;20195;-66
2021/07/17 17:16:33;;;;;;;6.03;4.57;;;31.10;99.90;;;;;;5031924;28;20246;-66
2021/07/17 17:18:59;;;;;;;5.25;4.80;;;31.60;99.90;;;;;;5031416;28;20599;-65
2021/07/17 17:21:25;;;;;;;4.88;4.38;;;31.50;99.90;;;;;;5031848;28;20180;-66
2021/07/17 17:23:51;;;;;;;4.30;4.00;;;31.20;99.90;;;;;;5031545;28;20203;-66
2021/07/17 17:26:17;;;;;;;4.55;4.25;;;30.80;99.90;;;;;;5032156;28;20652;-65
2021/07/17 17:28:42;;;;;;;4.80;4.50;;;30.60;99.90;;;;;;5031741;28;20214;-66
2021/07/17 17:31:09;;;;;;;6.55;6.05;;;30.30;99.90;;;;;;5031856;28;20199;-66
2021/07/17 17:33:34;;;;;;;4.53;4.30;;;30.00;99.90;;;;;;5031342;28;20206;-65
2021/07/17 17:36:00;;;;;;;4.88;4.40;;;29.90;99.90;;;;;;5031494;28;20207;-66
2021/07/17 17:38:25;;;;;;;5.25;4.93;;;29.90;99.90;;;;;;5030948;28;20180;-65
2021/07/17 17:40:51;;;;;;;4.88;4.57;;;29.70;99.90;;;;;;5031661;28;20178;-66
2021/07/17 17:43:17;;;;;;;4.90;4.50;;;29.40;99.90;;;;;;5031174;28;20214;-66
2021/07/17 17:45:42;;;;;;;5.22;4.80;;;29.70;99.90;;;;;;5030099;28;20237;-65
2021/07/17 17:48:08;;;;;;;4.85;4.40;;;29.90;99.90;;;;;;5031565;28;20171;-66
2021/07/17 17:50:34;;;;;;;4.88;4.57;;;30.10;99.90;;;;;;5031196;28;20551;-66
2021/07/17 17:52:59;;;;;;;5.15;4.68;;;30.00;99.90;;;;;;5031547;28;20191;-66
2021/07/17 17:55:25;;;;;;;5.13;4.63;;;30.00;99.90;;;;;;5030900;28;20218;-67
2021/07/17 17:57:51;;;;;;;5.25;4.75;;;30.10;99.90;;;;;;5031591;28;20282;-66
2021/07/17 18:00:18;;;;;;;5.15;4.70;;;30.10;99.90;;;;;;5031218;28;20299;-67
2021/07/17 18:02:45;;;;;;;7.15;6.55;;;30.00;99.90;;;;;;5031449;28;20175;-68
2021/07/17 18:05:15;;;;;;;5.18;4.78;;;30.00;99.90;;;;;;5030705;28;20183;-68
2021/07/17 18:07:41;;;;;;;4.60;4.30;;;30.10;99.90;;;;;;5031491;28;20179;-67
2021/07/17 18:10:09;;;;;;;4.90;4.60;;;29.90;99.90;;;;;;5031205;28;20226;-66
2021/07/17 18:12:35;;;;;;;4.22;3.95;;;29.90;99.90;;;;;;5031516;28;20194;-68
2021/07/17 18:15:01;;;;;;;5.40;4.95;;;30.00;99.90;;;;;;5031139;28;20226;-68
2021/07/17 18:17:27;;;;;;;5.00;4.70;;;29.60;99.90;;;;;;5033911;28;20195;-66
2021/07/17 18:19:52;;;;;;;4.15;3.95;;;29.40;99.90;;;;;;5035293;28;20670;-66
2021/07/17 18:22:18;;;;;;;4.82;4.53;;;29.20;99.90;;;;;;5034481;28;20183;-67
2021/07/17 18:24:43;;;;;;;4.40;4.05;;;29.00;99.90;;;;;;5034948;28;20226;-66
2021/07/17 18:27:09;;;;;;;4.57;4.25;;;28.70;99.90;;;;;;5035340;28;20184;-66
2021/07/17 18:29:36;;;;;;;4.30;4.00;;;28.40;99.90;;;;;;5036700;28;20681;-67
2021/07/17 18:32:02;;;;;;;4.50;4.20;;;28.40;99.90;;;;;;5036506;28;20255;-66
2021/07/17 18:34:28;;;;;;;4.70;4.30;;;28.30;99.90;;;;;;5035635;28;20207;-67
2021/07/17 18:36:53;;;;;;;4.88;4.47;;;28.30;99.90;;;;;;5035352;28;20176;-66
2021/07/17 18:39:19;;;;;;;7.05;4.60;;;28.20;99.90;;;;;;5035917;28;20211;-68
2021/07/17 18:41:45;;;;;;;4.85;4.55;;;28.30;99.90;;;;;;5037562;28;20179;-67
2021/07/17 18:44:10;;;;;;;4.55;4.25;;;28.50;99.90;;;;;;5035614;28;20215;-67
2021/07/17 18:46:37;;;;;;;4.53;4.30;;;28.40;99.90;;;;;;5036284;28;20233;-67
2021/07/17 18:49:03;;;;;;;4.90;4.60;;;28.40;99.90;;;;;;5035807;28;20560;-67
2021/07/17 18:51:28;;;;;;;5.15;4.85;;;28.10;99.90;;;;;;5036319;28;20167;-67
2021/07/17 18:53:54;;;;;;;5.22;4.30;;;27.50;99.90;;;;;;5035979;28;20199;-67
2021/07/17 18:56:20;;;;;;;4.82;4.43;;;26.90;99.90;;;;;;5036184;28;20207;-66
2021/07/17 18:58:45;;;;;;;5.10;4.45;;;26.30;99.90;;;;;;5035485;28;20245;-67
2021/07/17 19:01:11;;;;;;;4.72;4.43;;;25.70;99.90;;;;;;5035094;28;20186;-67
2021/07/17 19:03:37;;;;;;;5.40;4.97;;;25.30;99.90;;;;;;5034574;28;20195;-65
2021/07/17 19:06:03;;;;;;;4.78;4.40;;;24.90;99.90;;;;;;5036173;28;20203;-66
2021/07/17 19:08:28;;;;;;;5.95;5.55;;;24.70;99.90;;;;;;5036685;28;20206;-66
2021/07/17 19:10:54;;;;;;;5.10;4.43;;;24.40;99.90;;;;;;5037260;28;20172;-66
2021/07/17 19:13:20;;;;;;;5.35;5.00;;;24.20;99.90;;;;;;5036538;28;20199;-67
2021/07/17 19:15:46;;;;;;;4.93;4.63;;;23.90;99.90;;;;;;5035315;28;20297;-67
2021/07/17 19:18:12;;;;;;;5.47;5.07;;;23.80;99.90;;;;;;5037074;28;20227;-66
2021/07/17 19:20:37;;;;;;;5.05;4.65;;;23.60;99.90;;;;;;5036868;28;20218;-66
2021/07/17 19:23:04;;;;;;;5.60;5.10;;;23.50;99.90;;;;;;5036783;28;20562;-66
2021/07/17 19:25:30;;;;;;;5.78;5.13;;;23.30;99.90;;;;;;5037610;28;20172;-66
2021/07/17 19:27:56;;;;;;;5.57;5.07;;;23.20;99.90;;;;;;5036748;28;20176;-66
2021/07/17 19:30:25;;;;;;;6.30;5.68;;;23.00;99.90;;;;;;5036919;28;20725;-66
2021/07/17 19:32:55;;;;;;;5.25;4.97;;;22.90;99.90;;;;;;5035765;28;20187;-66
2021/07/17 19:35:21;;;;;;;4.85;4.55;;;22.70;99.90;;;;;;5034172;28;20566;-66
2021/07/17 19:37:47;;;;;;;5.30;4.90;;;22.60;99.90;;;;;;5035418;28;20180;-66
2021/07/17 19:40:16;;;;;;;5.53;5.03;;;22.50;99.90;;;;;;5035435;28;20176;-66
2021/07/17 19:42:43;;;;;;;5.20;4.80;;;22.40;99.90;;;;;;5035844;28;20171;-67
2021/07/17 19:45:11;;;;;;;5.30;4.90;;;22.30;99.90;;;;;;5035416;28;20195;-67
2021/07/17 19:47:37;;;;;;;5.50;5.10;;;22.10;99.90;;;;;;5035896;28;20534;-67
2021/07/17 19:50:04;;;;;;;6.63;4.80;;;22.00;99.90;;;;;;5035662;28;20203;-67
2021/07/17 19:52:30;;;;;;;5.20;4.90;;;22.00;99.90;;;;;;5034167;28;20218;-67
2021/07/17 19:54:59;;;;;;;5.03;4.65;;;21.90;99.90;;;;;;5035424;28;20223;-67
2021/07/17 19:57:26;;;;;;;5.65;5.22;;;21.90;99.90;;;;;;5035562;28;20172;-67
2021/07/17 19:59:52;;;;;;;5.33;4.80;;;21.80;99.90;;;;;;5034381;28;20174;-67
2021/07/17 20:02:18;;;;;;;5.45;5.10;;;21.60;99.90;;;;;;5035002;28;20223;-66
2021/07/17 20:04:44;;;;;;;5.22;4.93;;;21.60;99.90;;;;;;5035357;28;20196;-66
2021/07/17 20:07:10;;;;;;;5.60;5.30;;;21.50;99.90;;;;;;5034224;28;20172;-66
2021/07/17 20:09:37;;;;;;;4.90;4.60;;;21.40;99.90;;;;;;5035986;28;20210;-67
2021/07/17 20:12:02;;;;;;;6.93;5.18;;;21.30;99.90;;;;;;5035939;28;20519;-67
2021/07/17 20:14:28;;;;;;;5.40;5.00;;;21.20;99.90;;;;;;5035342;28;20234;-66
2021/07/17 20:16:54;;;;;;;5.47;5.03;;;21.20;99.90;;;;;;5035590;28;20198;-66
2021/07/17 20:19:19;;;;;;;5.65;5.35;;;21.10;99.90;;;;;;5035015;28;20263;-67
2021/07/17 20:21:45;;;;;;;6.20;5.90;;;21.00;99.90;;;;;;5034690;28;20625;-66
2021/07/17 20:24:11;;;;;;;5.28;4.97;;;21.00;99.90;;;;;;5033594;28;20199;-66
2021/07/17 20:26:36;;;;;;;5.70;5.40;;;20.90;99.90;;;;;;5035008;28;20672;-66
2021/07/17 20:29:02;;;;;;;6.30;5.78;;;20.80;99.90;;;;;;5035030;28;20224;-67
2021/07/17 20:31:28;;;;;;;6.18;5.78;;;20.80;99.90;;;;;;5033414;28;20675;-67
2021/07/17 20:33:54;;;;;;;6.15;5.50;;;20.70;99.90;;;;;;5033234;28;20195;-66
2021/07/17 20:36:19;;;;;;;6.22;4.95;;;20.70;99.90;;;;;;5032787;28;20745;-66
2021/07/17 20:38:46;;;;;;;5.50;5.13;;;20.60;99.90;;;;;;5032163;28;20180;-66
2021/07/17 20:41:12;;;;;;;6.20;5.60;;;20.60;99.90;;;;;;5032606;28;20183;-66
2021/07/17 20:43:38;;;;;;;6.27;5.83;;;20.60;99.90;;;;;;5033253;28;20230;-67
2021/07/17 20:46:03;;;;;;;5.75;5.35;;;20.50;99.90;;;;;;5032020;28;20210;-68
2021/07/17 20:48:30;;;;;;;5.60;5.20;;;20.40;99.90;;;;;;5032989;28;20195;-67
2021/07/17 20:50:56;;;;;;;5.93;5.57;;;20.30;99.90;;;;;;5033325;28;20172;-70
2021/07/17 20:53:21;;;;;;;7.03;6.47;;;20.30;99.90;;;;;;5032845;28;20294;-66
2021/07/17 20:55:47;;;;;;;6.73;5.93;;;20.30;99.90;;;;;;5032174;28;20301;-66
2021/07/17 20:58:13;;;;;;;6.13;5.73;;;20.30;99.90;;;;;;5032510;28;20184;-66
2021/07/17 21:00:39;;;;;;;5.53;5.20;;;20.20;99.90;;;;;;5034762;28;20172;-67
2021/07/17 21:03:05;;;;;;;6.63;6.03;;;20.20;99.90;;;;;;5033421;28;20207;-67
2021/07/17 21:05:31;;;;;;;6.20;5.80;;;20.10;99.90;;;;;;5032071;28;20184;-66
2021/07/17 21:07:56;;;;;;;6.90;6.50;;;20.00;99.90;;;;;;5032680;28;20187;-68
2021/07/17 21:10:25;;;;;;;6.73;6.13;;;20.00;99.90;;;;;;5032761;28;20663;-68
2021/07/17 21:12:51;;;;;;;7.20;6.37;;;19.90;99.90;;;;;;5030641;28;20256;-66
2021/07/17 21:15:19;;;;;;;6.37;5.97;;;19.80;99.90;;;;;;5031829;28;20345;-66
2021/07/17 21:17:45;;;;;;;6.23;5.73;;;19.80;99.90;;;;;;5032177;28;20187;-67
2021/07/17 21:20:14;;;;;;;6.57;6.17;;;19.80;99.90;;;;;;5034279;28;20179;-66
2021/07/17 21:22:40;;;;;;;6.40;5.93;;;19.80;99.90;;;;;;5031851;28;20182;-66
2021/07/17 21:25:08;;;;;;;6.40;5.97;;;19.80;99.90;;;;;;5031470;28;20270;-66
2021/07/17 21:27:34;;;;;;;6.10;5.67;;;19.70;99.90;;;;;;5032560;28;20867;-66
2021/07/17 21:29:59;;;;;;;6.00;5.50;;;19.80;99.90;;;;;;5031729;28;20203;-65
2021/07/17 21:32:26;;;;;;;6.67;6.27;;;19.70;99.90;;;;;;5032462;28;20258;-67
2021/07/17 21:34:51;;;;;;;6.70;6.07;;;19.70;99.90;;;;;;5032114;28;20206;-67
2021/07/17 21:37:17;;;;;;;7.60;7.10;;;19.70;99.90;;;;;;5032026;28;20179;-67
2021/07/17 21:39:43;;;;;;;7.03;6.33;;;19.70;99.90;;;;;;5032202;28;20270;-66
2021/07/17 21:42:08;;;;;;;5.80;5.40;;;19.70;99.90;;;;;;5033510;28;20263;-66
2021/07/17 21:44:34;;;;;;;6.50;6.00;;;19.60;99.90;;;;;;5033472;28;20234;-66
2021/07/17 21:47:01;;;;;;;5.97;5.57;;;19.60;99.90;;;;;;5031959;28;20179;-65
2021/07/17 21:49:28;;;;;;;5.70;5.30;;;19.60;99.90;;;;;;5031702;28;20250;-65
2021/07/17 21:51:55;;;;;;;6.23;5.83;;;19.50;99.90;;;;;;5031276;28;20183;-66
2021/07/17 21:54:20;;;;;;;6.20;5.73;;;19.40;99.90;;;;;;5031363;28;20188;-66
2021/07/17 21:56:46;;;;;;;5.93;5.40;;;19.30;99.90;;;;;;5031917;28;20214;-66
2021/07/17 21:59:11;;;;;;;6.83;6.07;;;19.20;99.90;;;;;;5033708;28;20636;-66
2021/07/17 22:01:37;;;;;;;5.93;5.60;;;19.00;99.90;;;;;;5034648;28;20258;-66
2021/07/17 22:04:03;;;;;;;6.33;6.00;;;18.90;99.90;;;;;;5033608;28;20199;-66
2021/07/17 22:06:29;;;;;;;5.83;5.50;;;18.80;99.90;;;;;;5031505;28;20218;-66
2021/07/17 22:08:54;;;;;;;5.97;5.53;;;18.70;99.90;;;;;;5032112;28;20175;-67
2021/07/17 22:11:21;;;;;;;5.97;5.57;;;18.60;99.90;;;;;;5033801;28;20179;-67
2021/07/17 22:13:46;;;;;;;6.33;5.83;;;18.50;99.90;;;;;;5030306;28;20199;-66
2021/07/17 22:16:12;;;;;;;7.67;6.70;;;18.50;99.90;;;;;;5031383;28;20302;-66
2021/07/17 22:18:39;;;;;;;6.57;6.10;;;18.40;99.90;;;;;;5031634;28;20174;-66
2021/07/17 22:21:06;;;;;;;6.53;6.10;;;18.40;99.90;;;;;;5033664;28;20184;-67
2021/07/17 22:23:32;;;;;;;6.90;6.40;;;18.40;99.90;;;;;;5036782;28;20199;-66
2021/07/17 22:25:58;;;;;;;6.10;5.40;;;18.40;99.90;;;;;;5035229;28;20278;-66
2021/07/17 22:28:24;;;;;;;6.33;5.93;;;18.30;99.90;;;;;;5034891;28;20186;-66
2021/07/17 22:30:50;;;;;;;5.73;5.20;;;18.30;99.90;;;;;;5034627;28;20192;-66
2021/07/17 22:33:17;;;;;;;6.00;5.60;;;18.30;99.90;;;;;;5034833;28;20207;-66
2021/07/17 22:35:43;;;;;;;6.20;5.80;;;18.30;99.90;;;;;;5034324;28;20212;-67
2021/07/17 22:38:10;;;;;;;6.37;5.90;;;18.20;99.90;;;;;;5034357;28;20185;-67
2021/07/17 22:40:36;;;;;;;6.67;6.13;;;18.20;99.90;;;;;;5032559;28;20680;-66
2021/07/17 22:43:04;;;;;;;7.17;6.70;;;18.20;99.90;;;;;;5031020;28;20662;-66